createdAt,value
2022-11-20T00:01:09.985Z,81.09
2022-11-20T00:03:36.506Z,81.42
2022-11-20T00:06:04.354Z,81.16
2022-11-20T00:08:30.837Z,80.71
2022-11-20T00:10:57.320Z,80.55
2022-11-20T00:13:24.190Z,80.76
2022-11-20T00:15:58.335Z,81.24
2022-11-20T00:18:24.908Z,80.26
2022-11-20T00:20:51.273Z,81.46
2022-11-20T00:23:17.938Z,81.12
2022-11-20T00:25:44.477Z,80.91
2022-11-20T00:28:10.829Z,80.23
2022-11-20T00:30:37.233Z,80.79
2022-11-20T00:33:03.847Z,80.97
2022-11-20T00:35:30.839Z,80.93
2022-11-20T00:37:57.285Z,81.41
2022-11-20T00:40:23.654Z,80.93
2022-11-20T00:42:50.185Z,81.35
2022-11-20T00:45:16.547Z,81.59
2022-11-20T00:47:42.955Z,82.07
2022-11-20T00:50:09.721Z,81.89
2022-11-20T00:52:36.099Z,82.19
2022-11-20T00:55:02.554Z,82.08
2022-11-20T00:57:28.981Z,80.73
2022-11-20T00:59:55.374Z,80.82
2022-11-20T01:02:21.846Z,82.26
2022-11-20T01:04:48.241Z,82.00
2022-11-20T01:07:14.718Z,81.73
2022-11-20T01:09:41.281Z,81.44
2022-11-20T01:12:07.631Z,81.90
2022-11-20T01:14:34.081Z,81.22
2022-11-20T01:17:00.797Z,82.05
2022-11-20T01:19:27.125Z,82.03
2022-11-20T01:21:55.838Z,81.69
2022-11-20T01:24:23.154Z,81.79
2022-11-20T01:26:51.965Z,82.09
2022-11-20T01:29:22.084Z,81.38
2022-11-20T01:31:49.200Z,81.25
2022-11-20T01:34:19.449Z,81.39
2022-11-20T01:36:46.895Z,82.33
2022-11-20T01:39:22.854Z,82.40
2022-11-20T01:42:10.325Z,82.99
2022-11-20T01:45:00.376Z,82.78
2022-11-20T01:47:36.380Z,81.63
2022-11-20T01:50:19.746Z,82.54
2022-11-20T01:52:55.926Z,81.63
2022-11-20T01:55:26.976Z,81.64
2022-11-20T01:57:53.920Z,82.56
2022-11-20T02:00:21.552Z,82.41
2022-11-20T02:03:06.393Z,82.04
2022-11-20T02:05:37.785Z,81.61
2022-11-20T02:08:06.777Z,82.27
2022-11-20T02:10:34.407Z,82.73
2022-11-20T02:13:19.540Z,81.96
2022-11-20T02:15:46.949Z,82.54
2022-11-20T02:18:16.927Z,82.81
2022-11-20T02:20:46.236Z,82.11
2022-11-20T02:23:16.469Z,82.92
2022-11-20T02:25:43.797Z,82.57
2022-11-20T02:28:11.131Z,82.66
2022-11-20T02:30:37.578Z,82.47
2022-11-20T02:33:04.059Z,82.48
2022-11-20T02:35:30.456Z,83.14
2022-11-20T02:38:02.497Z,82.51
2022-11-20T02:40:29.687Z,82.18
2022-11-20T02:42:57.797Z,83.28
2022-11-20T02:45:25.515Z,82.17
2022-11-20T02:47:52.625Z,82.49
2022-11-20T02:50:19.363Z,82.05
2022-11-20T02:52:45.837Z,82.95
2022-11-20T02:55:12.602Z,82.58
2022-11-20T02:57:39.057Z,82.11
2022-11-20T03:00:07.700Z,82.68
2022-11-20T03:02:34.319Z,83.19
2022-11-20T03:05:00.665Z,82.87
2022-11-20T03:07:27.076Z,82.99
2022-11-20T03:09:53.473Z,83.20
2022-11-20T03:12:19.820Z,82.76
2022-11-20T03:14:51.620Z,82.21
2022-11-20T03:17:19.321Z,82.98
2022-11-20T03:19:45.689Z,82.86
2022-11-20T03:22:12.181Z,83.79
2022-11-20T03:24:38.583Z,83.68
2022-11-20T03:27:05.209Z,83.04
2022-11-20T03:29:31.551Z,83.67
2022-11-20T03:31:57.970Z,83.77
2022-11-20T03:34:24.583Z,83.73
2022-11-20T03:36:50.964Z,83.97
2022-11-20T03:39:17.323Z,82.99
2022-11-20T03:41:44.324Z,84.20
2022-11-20T03:44:12.060Z,83.13
2022-11-20T03:46:38.838Z,82.95
2022-11-20T03:49:05.771Z,83.19
2022-11-20T03:51:34.764Z,83.61
2022-11-20T03:54:04.347Z,82.86
2022-11-20T03:56:33.857Z,82.58
2022-11-20T03:59:00.447Z,83.41
2022-11-20T04:01:29.347Z,82.77
2022-11-20T04:03:57.390Z,83.62
2022-11-20T04:06:30.534Z,83.20
2022-11-20T04:08:58.623Z,82.87
2022-11-20T04:11:30.265Z,83.54
2022-11-20T04:14:02.364Z,83.90
2022-11-20T04:16:34.664Z,83.10
2022-11-20T04:19:03.266Z,83.64
2022-11-20T04:21:30.278Z,83.43
2022-11-20T04:23:57.202Z,83.62
2022-11-20T04:26:26.687Z,84.42
2022-11-20T04:28:53.128Z,83.63
2022-11-20T04:31:23.197Z,83.17
2022-11-20T04:33:49.826Z,83.91
2022-11-20T04:36:25.879Z,83.65
2022-11-20T04:38:59.436Z,83.84
2022-11-20T04:41:28.978Z,82.65
2022-11-20T04:44:00.469Z,84.10
2022-11-20T04:46:28.380Z,83.64
2022-11-20T04:48:55.265Z,83.25
2022-11-20T04:51:21.616Z,83.90
2022-11-20T04:53:48.342Z,83.71
2022-11-20T04:56:15.329Z,83.56
2022-11-20T04:58:41.872Z,83.48
2022-11-20T05:01:14.626Z,84.39
2022-11-20T05:03:42.873Z,84.23
2022-11-20T05:06:11.698Z,83.61
2022-11-20T05:08:38.554Z,84.26
2022-11-20T05:11:11.075Z,83.98
2022-11-20T05:13:38.181Z,84.20
2022-11-20T05:16:14.327Z,83.41
2022-11-20T05:18:41.825Z,84.17
2022-11-20T05:21:09.049Z,83.74
2022-11-20T05:23:36.014Z,84.08
2022-11-20T05:26:02.626Z,83.66
2022-11-20T05:28:31.150Z,83.94
2022-11-20T05:31:04.595Z,84.62
2022-11-20T05:33:31.002Z,84.38
2022-11-20T05:36:01.090Z,83.88
2022-11-20T05:38:27.540Z,84.29
2022-11-20T05:40:53.944Z,84.32
2022-11-20T05:43:20.272Z,84.49
2022-11-20T05:45:55.729Z,84.53
2022-11-20T05:48:22.177Z,84.60
2022-11-20T05:50:49.423Z,83.52
2022-11-20T05:53:15.878Z,84.16
2022-11-20T05:55:42.552Z,84.50
2022-11-20T05:58:08.996Z,83.61
2022-11-20T06:00:36.308Z,84.48
2022-11-20T06:03:02.994Z,84.45
2022-11-20T06:05:29.493Z,83.82
2022-11-20T06:07:55.913Z,83.94
2022-11-20T06:10:22.329Z,84.42
2022-11-20T06:12:48.681Z,83.54
2022-11-20T06:15:15.048Z,83.96
2022-11-20T06:17:41.410Z,84.26
2022-11-20T06:20:08.267Z,84.36
2022-11-20T06:22:34.591Z,84.91
2022-11-20T06:25:00.955Z,83.85
2022-11-20T06:27:28.163Z,84.07
2022-11-20T06:29:54.569Z,84.24
2022-11-20T06:32:21.001Z,83.68
2022-11-20T06:34:47.408Z,84.00
2022-11-20T06:37:13.806Z,84.58
2022-11-20T06:39:40.347Z,83.99
2022-11-20T06:42:06.704Z,84.58
2022-11-20T06:44:33.720Z,84.01
2022-11-20T06:47:00.620Z,84.13
2022-11-20T06:49:27.023Z,84.80
2022-11-20T06:51:53.422Z,83.88
2022-11-20T06:54:19.787Z,84.09
2022-11-20T06:56:49.658Z,84.21
2022-11-20T06:59:16.083Z,84.00
2022-11-20T07:01:42.439Z,84.69
2022-11-20T07:04:08.853Z,85.13
2022-11-20T07:06:35.282Z,84.32
2022-11-20T07:09:02.550Z,84.67
2022-11-20T07:11:28.914Z,84.32
2022-11-20T07:13:55.431Z,84.41
2022-11-20T07:16:21.756Z,84.45
2022-11-20T07:18:50.794Z,84.13
2022-11-20T07:21:17.669Z,84.18
2022-11-20T07:23:44.027Z,84.58
2022-11-20T07:26:12.298Z,84.16
2022-11-20T07:28:39.846Z,85.31
2022-11-20T07:31:08.317Z,84.03
2022-11-20T07:33:34.864Z,84.72
2022-11-20T07:36:01.496Z,85.10
2022-11-20T07:38:28.265Z,84.06
2022-11-20T07:40:56.633Z,84.62
2022-11-20T07:43:23.016Z,85.17
2022-11-20T07:45:49.571Z,84.29
2022-11-20T07:48:16.052Z,84.66
2022-11-20T07:50:42.647Z,84.90
2022-11-20T07:53:09.142Z,85.15
2022-11-20T07:55:35.587Z,84.53
2022-11-20T07:58:01.949Z,84.75
2022-11-20T08:00:28.924Z,84.87
2022-11-20T08:02:55.740Z,85.03
2022-11-20T08:05:22.893Z,84.27
2022-11-20T08:07:49.351Z,85.04
2022-11-20T08:10:17.364Z,84.70
2022-11-20T08:13:11.492Z,84.78
2022-11-20T08:15:42.791Z,84.58
2022-11-20T08:18:34.673Z,84.50
2022-11-20T08:21:08.428Z,84.74
2022-11-20T08:23:41.826Z,84.67
2022-11-20T08:26:08.723Z,84.89
2022-11-20T08:28:35.774Z,85.06
2022-11-20T08:31:03.342Z,85.85
2022-11-20T08:33:30.805Z,85.35
2022-11-20T08:36:02.246Z,84.87
2022-11-20T08:38:28.819Z,85.65
2022-11-20T08:41:21.589Z,85.13
2022-11-20T08:43:48.340Z,85.70
2022-11-20T08:46:15.229Z,85.37
2022-11-20T08:48:42.047Z,85.94
2022-11-20T08:51:08.402Z,86.49
2022-11-20T08:53:34.855Z,86.27
2022-11-20T08:56:01.822Z,86.58
2022-11-20T08:58:28.460Z,85.93
2022-11-20T09:00:54.928Z,86.62
2022-11-20T09:03:21.365Z,85.49
2022-11-20T09:05:47.752Z,85.98
2022-11-20T09:08:14.249Z,85.76
2022-11-20T09:10:40.827Z,86.46
2022-11-20T09:13:07.414Z,86.74
2022-11-20T09:15:34.955Z,86.41
2022-11-20T09:18:03.672Z,85.96
2022-11-20T09:20:31.139Z,86.86
2022-11-20T09:22:58.833Z,86.95
2022-11-20T09:25:25.767Z,86.93
2022-11-20T09:27:59.572Z,86.94
2022-11-20T09:30:26.826Z,86.33
2022-11-20T09:32:53.383Z,86.13
2022-11-20T09:35:20.473Z,86.34
2022-11-20T09:37:47.418Z,86.41
2022-11-20T09:40:29.800Z,86.85
2022-11-20T09:43:18.905Z,85.69
2022-11-20T09:45:57.851Z,86.15
2022-11-20T09:48:43.581Z,85.43
2022-11-20T09:51:13.080Z,85.84
2022-11-20T09:54:10.940Z,86.29
2022-11-20T09:56:43.325Z,86.21
2022-11-20T09:59:23.646Z,85.32
2022-11-20T10:01:51.242Z,86.58
2022-11-20T10:04:20.875Z,86.08
2022-11-20T10:09:57.855Z,85.99
2022-11-20T10:12:42.840Z,85.89
2022-11-20T10:15:35.576Z,85.86
2022-11-20T10:18:04.947Z,85.68
2022-11-20T10:20:58.247Z,85.79
2022-11-20T10:23:43.954Z,86.51
2022-11-20T10:26:23.912Z,85.63
2022-11-20T10:29:16.848Z,85.72
2022-11-20T10:31:57.734Z,85.93
2022-11-20T10:34:30.645Z,85.73
2022-11-20T10:37:04.866Z,85.74
2022-11-20T10:39:38.911Z,86.50
2022-11-20T10:42:12.178Z,85.89
2022-11-20T10:45:06.079Z,86.02
2022-11-20T10:47:34.634Z,85.57
2022-11-20T10:50:10.693Z,86.94
2022-11-20T10:52:37.079Z,86.77
2022-11-20T10:55:18.216Z,86.53
2022-11-20T10:58:01.083Z,86.69
2022-11-20T11:00:27.415Z,87.12
2022-11-20T11:02:58.724Z,87.07
2022-11-20T11:05:37.525Z,87.36
2022-11-20T11:08:06.336Z,87.90
2022-11-20T11:10:54.082Z,87.22
2022-11-20T11:13:21.771Z,88.34
2022-11-20T11:15:48.204Z,88.17
2022-11-20T11:18:27.804Z,88.57
2022-11-20T11:20:55.716Z,88.34
2022-11-20T11:23:40.781Z,88.01
2022-11-20T11:26:22.724Z,88.46
2022-11-20T11:28:56.690Z,89.49
2022-11-20T11:31:24.894Z,88.68
2022-11-20T11:33:51.338Z,88.86
2022-11-20T11:36:22.497Z,90.16
2022-11-20T11:38:53.249Z,88.84
2022-11-20T11:41:39.994Z,90.05
2022-11-20T11:44:40.853Z,89.97
2022-11-20T11:47:20.613Z,90.25
2022-11-20T11:49:46.956Z,91.21
2022-11-20T11:52:17.356Z,90.90
2022-11-20T11:54:46.637Z,91.06
2022-11-20T11:57:27.763Z,91.22
2022-11-20T12:00:14.641Z,91.69
2022-11-20T12:02:46.987Z,91.72
2022-11-20T12:05:21.815Z,92.29
2022-11-20T12:07:54.904Z,92.68
2022-11-20T12:10:57.225Z,93.09
2022-11-20T12:13:54.493Z,93.72
2022-11-20T12:16:21.691Z,94.47
2022-11-20T12:18:53.374Z,94.37
2022-11-20T12:21:37.839Z,93.96
2022-11-20T12:24:07.571Z,94.75
2022-11-20T12:27:15.043Z,94.44
2022-11-20T12:30:11.221Z,94.36
2022-11-20T12:32:40.524Z,95.26
2022-11-20T12:35:15.434Z,95.15
2022-11-20T12:38:04.258Z,95.32
2022-11-20T12:41:05.974Z,94.40
2022-11-20T12:43:58.842Z,95.66
2022-11-20T12:46:48.913Z,95.68
2022-11-20T12:49:31.570Z,96.19
2022-11-20T12:51:57.862Z,96.14
2022-11-20T12:54:41.124Z,96.89
2022-11-20T12:57:29.980Z,96.88
2022-11-20T13:00:09.212Z,96.00
2022-11-20T13:03:14.030Z,96.96
2022-11-20T13:05:52.539Z,97.44
2022-11-20T13:08:28.768Z,97.84
2022-11-20T13:11:01.193Z,97.76
2022-11-20T13:13:43.985Z,97.06
2022-11-20T13:16:25.060Z,96.63
2022-11-20T13:18:51.800Z,97.99
2022-11-20T13:21:23.651Z,97.20
2022-11-20T13:23:50.162Z,97.28
2022-11-20T13:26:20.866Z,97.36
2022-11-20T13:28:49.387Z,98.29
2022-11-20T13:31:36.527Z,97.78
2022-11-20T13:34:07.281Z,97.77
2022-11-20T13:36:35.941Z,97.30
2022-11-20T13:39:02.320Z,97.34
2022-11-20T13:41:38.756Z,97.23
2022-11-20T13:44:15.851Z,98.01
2022-11-20T13:46:45.811Z,97.96
2022-11-20T13:49:43.849Z,98.15
2022-11-20T13:52:39.484Z,97.66
2022-11-20T13:55:20.976Z,97.45
2022-11-20T13:58:05.710Z,97.67
2022-11-20T14:00:32.446Z,97.57
2022-11-20T14:03:28.381Z,97.90
2022-11-20T14:06:15.615Z,98.50
2022-11-20T14:08:46.855Z,98.32
2022-11-20T14:11:22.266Z,98.81
2022-11-20T14:14:05.058Z,98.07
2022-11-20T14:16:37.628Z,98.70
2022-11-20T14:19:22.925Z,98.21
2022-11-20T14:22:12.070Z,99.20
2022-11-20T14:24:38.597Z,98.42
2022-11-20T14:27:05.277Z,99.30
2022-11-20T14:29:37.252Z,99.15
2022-11-20T14:32:04.752Z,99.45
2022-11-20T14:34:33.519Z,98.98
2022-11-20T14:37:02.646Z,98.76
2022-11-20T14:39:43.161Z,98.74
2022-11-20T14:42:17.962Z,99.70
2022-11-20T14:44:45.448Z,99.31
2022-11-20T14:47:14.254Z,99.60
2022-11-20T14:49:41.498Z,99.97
2022-11-20T14:52:17.612Z,99.11
2022-11-20T14:54:46.204Z,99.56
2022-11-20T14:57:22.249Z,98.93
2022-11-20T14:59:48.678Z,99.74
2022-11-20T15:02:15.109Z,99.70
2022-11-20T15:04:49.368Z,99.63
2022-11-20T15:07:41.020Z,99.90
2022-11-20T15:10:09.275Z,100.00
2022-11-20T15:12:38.925Z,100.00
2022-11-20T15:15:06.697Z,99.57
2022-11-20T15:17:37.818Z,99.64
2022-11-20T15:20:12.672Z,99.83
2022-11-20T15:22:39.074Z,100.00
2022-11-20T15:25:14.316Z,100.00
2022-11-20T15:27:40.840Z,99.83
2022-11-20T15:30:17.737Z,100.00
2022-11-20T15:32:45.136Z,100.00
2022-11-20T15:35:12.134Z,100.00
2022-11-20T15:37:39.190Z,100.00
2022-11-20T15:40:06.838Z,100.00
2022-11-20T15:42:34.333Z,100.00
2022-11-20T15:45:01.097Z,100.00
2022-11-20T15:47:36.880Z,100.00
2022-11-20T15:50:03.813Z,100.00
2022-11-20T15:52:36.302Z,100.00
2022-11-20T15:55:11.218Z,100.00
2022-11-20T15:57:37.624Z,100.00
2022-11-20T16:00:04.572Z,100.00
2022-11-20T16:02:30.967Z,100.00
2022-11-20T16:04:57.316Z,100.00
2022-11-20T16:07:23.845Z,100.00
2022-11-20T16:09:50.240Z,100.00
2022-11-20T16:12:36.624Z,100.00
2022-11-20T16:15:21.600Z,100.00
2022-11-20T16:17:47.958Z,100.00
2022-11-20T16:20:14.287Z,100.00
2022-11-20T16:22:40.695Z,100.00
2022-11-20T16:25:07.827Z,100.00
2022-11-20T16:27:34.611Z,100.00
2022-11-20T16:30:00.944Z,100.00
2022-11-20T16:32:29.894Z,100.00
2022-11-20T16:34:56.513Z,100.00
2022-11-20T16:37:23.003Z,100.00
2022-11-20T16:39:49.755Z,100.00
2022-11-20T16:42:16.086Z,100.00
2022-11-20T16:44:46.840Z,100.00
2022-11-20T16:47:13.499Z,100.00
2022-11-20T16:49:39.849Z,100.00
2022-11-20T16:52:09.294Z,100.00
2022-11-20T16:54:35.651Z,100.00
2022-11-20T16:57:02.057Z,100.00
2022-11-20T16:59:28.423Z,100.00
2022-11-20T17:01:55.001Z,100.00
2022-11-20T17:04:22.010Z,100.00
2022-11-20T17:06:48.595Z,100.00
2022-11-20T17:09:15.058Z,100.00
2022-11-20T17:11:41.875Z,100.00
2022-11-20T17:14:14.436Z,100.00
2022-11-20T17:16:47.535Z,100.00
2022-11-20T17:19:14.866Z,100.00
2022-11-20T17:21:41.364Z,100.00
2022-11-20T17:24:10.609Z,100.00
2022-11-20T17:26:39.006Z,100.00
2022-11-20T17:29:07.662Z,100.00
2022-11-20T17:31:35.014Z,100.00
2022-11-20T17:34:02.324Z,100.00
2022-11-20T17:36:30.013Z,100.00
2022-11-20T17:38:56.825Z,100.00
2022-11-20T17:41:25.517Z,100.00
2022-11-20T17:43:56.968Z,100.00
2022-11-20T17:46:25.982Z,100.00
2022-11-20T17:48:52.594Z,100.00
2022-11-20T17:51:21.156Z,100.00
2022-11-20T17:53:53.431Z,100.00
2022-11-20T17:56:39.011Z,100.00
2022-11-20T17:59:06.449Z,100.00
2022-11-20T18:01:33.028Z,100.00
2022-11-20T18:03:59.701Z,100.00
2022-11-20T18:06:28.566Z,100.00
2022-11-20T18:08:55.428Z,100.00
2022-11-20T18:11:23.468Z,100.00
2022-11-20T18:14:11.246Z,100.00
2022-11-20T18:16:42.887Z,100.00
2022-11-20T18:19:11.441Z,100.00
2022-11-20T18:21:37.960Z,100.00
2022-11-20T18:24:04.645Z,100.00
2022-11-20T18:26:31.103Z,100.00
2022-11-20T18:28:57.859Z,100.00
2022-11-20T18:31:24.324Z,100.00
2022-11-20T18:33:52.491Z,100.00
2022-11-20T18:36:22.067Z,100.00
2022-11-20T18:38:50.962Z,100.00
2022-11-20T18:41:40.685Z,100.00
2022-11-20T18:44:35.626Z,100.00
2022-11-20T18:47:04.848Z,100.00
2022-11-20T18:49:34.389Z,100.00
2022-11-20T18:52:00.908Z,100.00
2022-11-20T18:54:30.368Z,100.00
2022-11-20T18:56:56.855Z,100.00
2022-11-20T18:59:23.636Z,100.00
2022-11-20T19:01:50.278Z,100.00
2022-11-20T19:04:21.039Z,100.00
2022-11-20T19:06:52.821Z,100.00
2022-11-20T19:09:19.584Z,100.00
2022-11-20T19:11:46.089Z,100.00
2022-11-20T19:14:12.541Z,100.00
2022-11-20T19:16:39.216Z,100.00
2022-11-20T19:19:07.376Z,100.00
2022-11-20T19:21:34.944Z,100.00
2022-11-20T19:24:03.179Z,100.00
2022-11-20T19:26:30.159Z,100.00
2022-11-20T19:28:56.736Z,100.00
2022-11-20T19:31:26.793Z,100.00
2022-11-20T19:33:58.816Z,100.00
2022-11-20T19:36:28.317Z,100.00
2022-11-20T19:38:55.310Z,100.00
2022-11-20T19:41:31.426Z,100.00
2022-11-20T19:43:59.417Z,100.00
2022-11-20T19:46:27.602Z,100.00
2022-11-20T19:48:54.701Z,100.00
2022-11-20T19:51:24.882Z,100.00
2022-11-20T19:53:51.821Z,100.00
2022-11-20T19:56:18.759Z,100.00
2022-11-20T19:58:45.197Z,100.00
2022-11-20T20:01:20.070Z,100.00
2022-11-20T20:03:47.706Z,100.00
2022-11-20T20:06:17.004Z,100.00
2022-11-20T20:08:44.110Z,100.00
2022-11-20T20:11:14.328Z,100.00
2022-11-20T20:13:41.764Z,100.00
2022-11-20T20:16:10.206Z,100.00
2022-11-20T20:18:36.908Z,100.00
2022-11-20T20:21:08.528Z,100.00
2022-11-20T20:23:38.483Z,100.00
2022-11-20T20:26:07.437Z,100.00
2022-11-20T20:28:35.258Z,100.00
2022-11-20T20:31:09.683Z,100.00
2022-11-20T20:33:37.281Z,100.00
2022-11-20T20:36:08.955Z,100.00
2022-11-20T20:38:35.371Z,100.00
2022-11-20T20:41:02.223Z,100.00
2022-11-20T20:43:28.652Z,100.00
2022-11-20T20:45:55.551Z,100.00
2022-11-20T20:48:24.334Z,100.00
2022-11-20T20:50:59.314Z,100.00
2022-11-20T20:53:27.372Z,100.00
2022-11-20T20:55:58.157Z,100.00
2022-11-20T20:58:25.466Z,100.00
2022-11-20T21:00:52.244Z,100.00
2022-11-20T21:03:19.550Z,100.00
2022-11-20T21:05:46.993Z,100.00
2022-11-20T21:08:22.404Z,100.00
2022-11-20T21:10:49.809Z,100.00
2022-11-20T21:13:16.625Z,100.00
2022-11-20T21:15:45.700Z,100.00
2022-11-20T21:18:12.061Z,100.00
2022-11-20T21:20:59.963Z,100.00
2022-11-20T21:23:26.475Z,100.00
2022-11-20T21:25:52.919Z,100.00
2022-11-20T21:28:19.503Z,100.00
2022-11-20T21:30:46.595Z,100.00
2022-11-20T21:33:13.315Z,100.00
2022-11-20T21:35:41.287Z,100.00
2022-11-20T21:38:07.801Z,100.00
2022-11-20T21:40:34.180Z,100.00
2022-11-20T21:43:00.759Z,100.00
2022-11-20T21:45:27.210Z,100.00
2022-11-20T21:47:54.813Z,100.00
2022-11-20T21:50:24.598Z,100.00
2022-11-20T21:52:51.012Z,100.00
2022-11-20T21:55:17.520Z,100.00
2022-11-20T21:57:43.947Z,100.00
2022-11-20T22:00:12.218Z,100.00
2022-11-20T22:02:40.284Z,100.00
2022-11-20T22:05:08.309Z,100.00
2022-11-20T22:07:35.335Z,100.00
2022-11-20T22:10:01.796Z,100.00
2022-11-20T22:12:28.388Z,100.00
2022-11-20T22:14:54.914Z,100.00
2022-11-20T22:17:41.228Z,100.00
2022-11-20T22:20:08.579Z,100.00
2022-11-20T22:22:34.990Z,100.00
2022-11-20T22:25:01.341Z,100.00
2022-11-20T22:27:32.703Z,100.00
2022-11-20T22:29:59.116Z,100.00
2022-11-20T22:32:25.613Z,100.00
2022-11-20T22:34:52.150Z,100.00
2022-11-20T22:37:18.556Z,100.00
2022-11-20T22:39:44.992Z,100.00
2022-11-20T22:42:11.402Z,100.00
2022-11-20T22:44:37.785Z,100.00
2022-11-20T22:47:08.695Z,100.00
2022-11-20T22:49:37.618Z,100.00
2022-11-20T22:52:04.124Z,100.00
2022-11-20T22:54:30.542Z,100.00
2022-11-20T22:56:56.975Z,100.00
2022-11-20T22:59:23.478Z,100.00
2022-11-20T23:01:53.159Z,100.00
2022-11-20T23:04:21.941Z,100.00
2022-11-20T23:06:50.439Z,100.00
2022-11-20T23:09:17.513Z,100.00
2022-11-20T23:11:46.619Z,100.00
2022-11-20T23:14:15.326Z,100.00
2022-11-20T23:16:42.312Z,100.00
2022-11-20T23:19:14.582Z,100.00
2022-11-20T23:21:42.325Z,100.00
2022-11-20T23:24:09.750Z,100.00
2022-11-20T23:26:39.201Z,100.00
2022-11-20T23:29:06.502Z,100.00
2022-11-20T23:31:34.956Z,100.00
2022-11-20T23:34:01.636Z,100.00
2022-11-20T23:36:28.331Z,100.00
2022-11-20T23:38:54.693Z,99.97
2022-11-20T23:41:21.255Z,100.00
2022-11-20T23:43:47.660Z,100.00
2022-11-20T23:46:16.664Z,100.00
2022-11-20T23:48:45.229Z,100.00
2022-11-20T23:51:12.299Z,100.00
2022-11-20T23:53:38.754Z,99.92
2022-11-20T23:56:06.045Z,100.00
2022-11-20T23:58:34.777Z,99.68
